sensor_id;sensor_type;location;lat;lon;timestamp;temperature;humidity
4356;DHT22;64374;51.482;7.408;2023-05-08T00:00:48;18.60;99.90
4356;DHT22;64374;51.482;7.408;2023-05-08T00:03:16;18.60;99.90
4356;DHT22;64374;51.482;7.408;2023-05-08T00:05:45;18.60;99.90
4356;DHT22;64374;51.482;7.408;2023-05-08T00:08:13;18.70;99.90
4356;DHT22;64374;51.482;7.408;2023-05-08T00:10:43;18.70;99.90
4356;DHT22;64374;51.482;7.408;2023-05-08T00:13:14;18.70;99.90
4356;DHT22;64374;51.482;7.408;2023-05-08T00:15:42;18.60;99.90
4356;DHT22;64374;51.482;7.408;2023-05-08T00:18:11;18.60;99.90
4356;DHT22;64374;51.482;7.408;2023-05-08T00:20:39;18.50;99.90
4356;DHT22;64374;51.482;7.408;2023-05-08T00:23:10;18.60;99.90
4356;DHT22;64374;51.482;7.408;2023-05-08T00:25:38;18.60;99.90
4356;DHT22;64374;51.482;7.408;2023-05-08T00:28:08;18.50;99.90
4356;DHT22;64374;51.482;7.408;2023-05-08T00:30:37;18.50;99.90
4356;DHT22;64374;51.482;7.408;2023-05-08T00:33:06;18.40;99.90
4356;DHT22;64374;51.482;7.408;2023-05-08T00:35:35;18.50;99.90
4356;DHT22;64374;51.482;7.408;2023-05-08T00:38:03;18.50;99.90
4356;DHT22;64374;51.482;7.408;2023-05-08T00:40:31;18.40;99.90
4356;DHT22;64374;51.482;7.408;2023-05-08T00:43:00;18.40;99.90
4356;DHT22;64374;51.482;7.408;2023-05-08T00:45:33;18.40;99.90
4356;DHT22;64374;51.482;7.408;2023-05-08T00:48:03;18.50;99.90
4356;DHT22;64374;51.482;7.408;2023-05-08T00:50:32;18.40;99.90
4356;DHT22;64374;51.482;7.408;2023-05-08T00:53:01;18.40;99.90
4356;DHT22;64374;51.482;7.408;2023-05-08T00:55:30;18.40;99.90
4356;DHT22;64374;51.482;7.408;2023-05-08T00:57:59;18.40;99.90
4356;DHT22;64374;51.482;7.408;2023-05-08T01:00:31;18.30;99.90
4356;DHT22;64374;51.482;7.408;2023-05-08T01:03:00;18.30;99.90
4356;DHT22;64374;51.482;7.408;2023-05-08T01:05:28;18.20;99.90
4356;DHT22;64374;51.482;7.408;2023-05-08T01:07:57;18.20;99.90
4356;DHT22;64374;51.482;7.408;2023-05-08T01:10:32;18.20;99.90
4356;DHT22;64374;51.482;7.408;2023-05-08T01:13:08;18.20;99.90
4356;DHT22;64374;51.482;7.408;2023-05-08T01:15:42;18.30;99.90
4356;DHT22;64374;51.482;7.408;2023-05-08T01:18:16;18.30;99.90
4356;DHT22;64374;51.482;7.408;2023-05-08T01:20:54;18.20;99.90
4356;DHT22;64374;51.482;7.408;2023-05-08T01:23:44;18.20;99.90
4356;DHT22;64374;51.482;7.408;2023-05-08T01:30:03;18.00;99.90
4356;DHT22;64374;51.482;7.408;2023-05-08T01:32:38;18.00;99.90
4356;DHT22;64374;51.482;7.408;2023-05-08T01:35:15;18.00;99.90
4356;DHT22;64374;51.482;7.408;2023-05-08T01:37:50;17.90;99.90
4356;DHT22;64374;51.482;7.408;2023-05-08T01:40:24;17.90;99.90
4356;DHT22;64374;51.482;7.408;2023-05-08T01:43:03;18.00;99.90
4356;DHT22;64374;51.482;7.408;2023-05-08T01:45:44;18.00;99.90
4356;DHT22;64374;51.482;7.408;2023-05-08T01:48:17;18.00;99.90
4356;DHT22;64374;51.482;7.408;2023-05-08T01:50:50;17.90;99.90
4356;DHT22;64374;51.482;7.408;2023-05-08T01:53:25;17.90;99.90
4356;DHT22;64374;51.482;7.408;2023-05-08T01:55:59;17.90;99.90
4356;DHT22;64374;51.482;7.408;2023-05-08T01:58:29;17.90;99.90
4356;DHT22;64374;51.482;7.408;2023-05-08T02:01:01;17.90;99.90
4356;DHT22;64374;51.482;7.408;2023-05-08T02:03:32;17.90;99.90
4356;DHT22;64374;51.482;7.408;2023-05-08T02:06:02;17.90;99.90
4356;DHT22;64374;51.482;7.408;2023-05-08T02:08:33;17.90;99.90
4356;DHT22;64374;51.482;7.408;2023-05-08T02:11:04;17.90;99.90
4356;DHT22;64374;51.482;7.408;2023-05-08T02:13:34;17.90;99.90
4356;DHT22;64374;51.482;7.408;2023-05-08T02:16:05;18.00;99.90
4356;DHT22;64374;51.482;7.408;2023-05-08T02:18:38;18.00;99.90
4356;DHT22;64374;51.482;7.408;2023-05-08T02:21:07;17.90;99.90
4356;DHT22;64374;51.482;7.408;2023-05-08T02:23:38;17.90;99.90
4356;DHT22;64374;51.482;7.408;2023-05-08T02:26:08;17.80;99.90
4356;DHT22;64374;51.482;7.408;2023-05-08T02:28:37;17.80;99.90
4356;DHT22;64374;51.482;7.408;2023-05-08T02:31:08;17.80;99.90
4356;DHT22;64374;51.482;7.408;2023-05-08T02:33:41;17.80;99.90
4356;DHT22;64374;51.482;7.408;2023-05-08T02:36:15;17.80;99.90
4356;DHT22;64374;51.482;7.408;2023-05-08T02:38:50;17.70;99.90
4356;DHT22;64374;51.482;7.408;2023-05-08T02:41:22;17.70;99.90
4356;DHT22;64374;51.482;7.408;2023-05-08T02:43:54;17.60;99.90
4356;DHT22;64374;51.482;7.408;2023-05-08T02:46:26;17.60;99.90
4356;DHT22;64374;51.482;7.408;2023-05-08T02:49:02;17.50;99.90
4356;DHT22;64374;51.482;7.408;2023-05-08T02:51:38;17.40;99.90
4356;DHT22;64374;51.482;7.408;2023-05-08T02:54:17;17.40;99.90
4356;DHT22;64374;51.482;7.408;2023-05-08T02:56:55;17.40;99.90
4356;DHT22;64374;51.482;7.408;2023-05-08T02:59:31;17.50;99.90
4356;DHT22;64374;51.482;7.408;2023-05-08T03:02:08;17.50;99.90
4356;DHT22;64374;51.482;7.408;2023-05-08T03:04:46;17.60;99.90
4356;DHT22;64374;51.482;7.408;2023-05-08T03:07:15;17.70;99.90
4356;DHT22;64374;51.482;7.408;2023-05-08T03:09:49;17.60;99.90
4356;DHT22;64374;51.482;7.408;2023-05-08T03:12:22;17.60;99.90
4356;DHT22;64374;51.482;7.408;2023-05-08T03:14:56;17.70;99.90
4356;DHT22;64374;51.482;7.408;2023-05-08T03:17:30;17.60;99.90
4356;DHT22;64374;51.482;7.408;2023-05-08T03:20:03;17.60;99.90
4356;DHT22;64374;51.482;7.408;2023-05-08T03:22:35;17.50;99.90
4356;DHT22;64374;51.482;7.408;2023-05-08T03:25:09;17.50;99.90
4356;DHT22;64374;51.482;7.408;2023-05-08T03:27:39;17.50;99.90
4356;DHT22;64374;51.482;7.408;2023-05-08T03:30:09;17.50;99.90
4356;DHT22;64374;51.482;7.408;2023-05-08T03:32:41;17.50;99.90
4356;DHT22;64374;51.482;7.408;2023-05-08T03:35:14;17.60;99.90
4356;DHT22;64374;51.482;7.408;2023-05-08T03:37:43;17.60;99.90
4356;DHT22;64374;51.482;7.408;2023-05-08T03:40:13;17.60;99.90
4356;DHT22;64374;51.482;7.408;2023-05-08T03:42:42;17.50;99.90
4356;DHT22;64374;51.482;7.408;2023-05-08T03:45:13;17.50;99.90
4356;DHT22;64374;51.482;7.408;2023-05-08T03:47:43;17.60;99.90
4356;DHT22;64374;51.482;7.408;2023-05-08T03:50:15;17.50;99.90
4356;DHT22;64374;51.482;7.408;2023-05-08T03:52:44;17.30;99.90
4356;DHT22;64374;51.482;7.408;2023-05-08T03:55:13;17.30;99.90
4356;DHT22;64374;51.482;7.408;2023-05-08T03:57:49;17.30;99.90
4356;DHT22;64374;51.482;7.408;2023-05-08T04:00:21;17.30;99.90
4356;DHT22;64374;51.482;7.408;2023-05-08T04:03:11;17.20;99.90
4356;DHT22;64374;51.482;7.408;2023-05-08T04:05:49;17.20;99.90
4356;DHT22;64374;51.482;7.408;2023-05-08T04:08:21;17.20;99.90
4356;DHT22;64374;51.482;7.408;2023-05-08T04:11:03;17.30;99.90
4356;DHT22;64374;51.482;7.408;2023-05-08T04:13:36;17.20;99.90
4356;DHT22;64374;51.482;7.408;2023-05-08T04:16:12;17.30;99.90
4356;DHT22;64374;51.482;7.408;2023-05-08T04:18:45;17.10;99.90
4356;DHT22;64374;51.482;7.408;2023-05-08T04:21:22;17.10;99.90
4356;DHT22;64374;51.482;7.408;2023-05-08T04:23:55;17.10;99.90
4356;DHT22;64374;51.482;7.408;2023-05-08T04:26:26;17.20;99.90
4356;DHT22;64374;51.482;7.408;2023-05-08T04:28:57;17.10;99.90
4356;DHT22;64374;51.482;7.408;2023-05-08T04:31:26;17.10;99.90
4356;DHT22;64374;51.482;7.408;2023-05-08T04:33:56;17.00;99.90
4356;DHT22;64374;51.482;7.408;2023-05-08T04:36:26;17.00;99.90
4356;DHT22;64374;51.482;7.408;2023-05-08T04:38:59;17.00;99.90
4356;DHT22;64374;51.482;7.408;2023-05-08T04:41:29;17.00;99.90
4356;DHT22;64374;51.482;7.408;2023-05-08T04:43:57;17.10;99.90
4356;DHT22;64374;51.482;7.408;2023-05-08T04:46:26;17.10;99.90
4356;DHT22;64374;51.482;7.408;2023-05-08T04:48:54;17.20;99.90
4356;DHT22;64374;51.482;7.408;2023-05-08T04:51:23;17.30;99.90
4356;DHT22;64374;51.482;7.408;2023-05-08T04:53:53;17.30;99.90
4356;DHT22;64374;51.482;7.408;2023-05-08T04:56:21;17.40;99.90
4356;DHT22;64374;51.482;7.408;2023-05-08T04:58:49;17.40;99.90
4356;DHT22;64374;51.482;7.408;2023-05-08T05:01:18;17.40;99.90
4356;DHT22;64374;51.482;7.408;2023-05-08T05:03:46;17.30;99.90
4356;DHT22;64374;51.482;7.408;2023-05-08T05:06:15;17.30;99.90
4356;DHT22;64374;51.482;7.408;2023-05-08T05:08:44;17.30;99.90
4356;DHT22;64374;51.482;7.408;2023-05-08T05:11:13;17.30;99.90
4356;DHT22;64374;51.482;7.408;2023-05-08T05:13:42;17.30;99.90
4356;DHT22;64374;51.482;7.408;2023-05-08T05:16:12;17.30;99.90
4356;DHT22;64374;51.482;7.408;2023-05-08T05:18:40;17.30;99.90
4356;DHT22;64374;51.482;7.408;2023-05-08T05:21:08;17.30;99.90
4356;DHT22;64374;51.482;7.408;2023-05-08T05:23:37;17.30;99.90
4356;DHT22;64374;51.482;7.408;2023-05-08T05:26:05;17.50;99.90
4356;DHT22;64374;51.482;7.408;2023-05-08T05:28:35;17.40;99.90
4356;DHT22;64374;51.482;7.408;2023-05-08T05:31:05;17.50;99.90
4356;DHT22;64374;51.482;7.408;2023-05-08T05:33:33;17.50;99.90
4356;DHT22;64374;51.482;7.408;2023-05-08T05:36:02;17.70;99.90
4356;DHT22;64374;51.482;7.408;2023-05-08T05:38:30;17.60;99.90
4356;DHT22;64374;51.482;7.408;2023-05-08T05:40:59;17.60;99.90
4356;DHT22;64374;51.482;7.408;2023-05-08T05:43:27;17.70;99.90
4356;DHT22;64374;51.482;7.408;2023-05-08T05:46:02;17.80;99.90
4356;DHT22;64374;51.482;7.408;2023-05-08T05:48:32;17.90;99.90
4356;DHT22;64374;51.482;7.408;2023-05-08T05:51:00;18.00;99.90
4356;DHT22;64374;51.482;7.408;2023-05-08T05:53:30;18.10;99.90
4356;DHT22;64374;51.482;7.408;2023-05-08T05:55:58;18.20;99.90
4356;DHT22;64374;51.482;7.408;2023-05-08T05:58:31;18.30;99.90
4356;DHT22;64374;51.482;7.408;2023-05-08T06:01:02;18.20;99.90
4356;DHT22;64374;51.482;7.408;2023-05-08T06:03:30;18.30;99.90
4356;DHT22;64374;51.482;7.408;2023-05-08T06:05:59;18.40;99.90
4356;DHT22;64374;51.482;7.408;2023-05-08T06:08:27;18.50;99.90
4356;DHT22;64374;51.482;7.408;2023-05-08T06:10:55;18.60;99.90
4356;DHT22;64374;51.482;7.408;2023-05-08T06:13:25;18.60;99.90
4356;DHT22;64374;51.482;7.408;2023-05-08T06:15:55;18.70;99.90
4356;DHT22;64374;51.482;7.408;2023-05-08T06:18:25;18.80;99.90
4356;DHT22;64374;51.482;7.408;2023-05-08T06:20:56;18.80;99.90
4356;DHT22;64374;51.482;7.408;2023-05-08T06:23:24;18.80;99.90
4356;DHT22;64374;51.482;7.408;2023-05-08T06:25:53;19.00;99.90
4356;DHT22;64374;51.482;7.408;2023-05-08T06:28:21;19.00;99.90
4356;DHT22;64374;51.482;7.408;2023-05-08T06:30:53;19.00;99.90
4356;DHT22;64374;51.482;7.408;2023-05-08T06:33:21;19.00;99.90
4356;DHT22;64374;51.482;7.408;2023-05-08T06:35:55;18.80;99.90
4356;DHT22;64374;51.482;7.408;2023-05-08T06:38:23;18.80;99.90
4356;DHT22;64374;51.482;7.408;2023-05-08T06:40:51;18.90;99.90
4356;DHT22;64374;51.482;7.408;2023-05-08T06:43:21;18.90;99.90
4356;DHT22;64374;51.482;7.408;2023-05-08T06:45:49;18.80;99.90
4356;DHT22;64374;51.482;7.408;2023-05-08T06:48:19;18.80;99.90
4356;DHT22;64374;51.482;7.408;2023-05-08T06:50:47;18.90;99.90
4356;DHT22;64374;51.482;7.408;2023-05-08T06:53:18;18.90;99.90
4356;DHT22;64374;51.482;7.408;2023-05-08T06:55:46;18.90;99.90
4356;DHT22;64374;51.482;7.408;2023-05-08T06:58:15;18.90;99.90
4356;DHT22;64374;51.482;7.408;2023-05-08T07:00:43;18.90;99.90
4356;DHT22;64374;51.482;7.408;2023-05-08T07:03:12;18.90;99.90
4356;DHT22;64374;51.482;7.408;2023-05-08T07:05:40;19.00;99.90
4356;DHT22;64374;51.482;7.408;2023-05-08T07:08:08;19.00;99.90
4356;DHT22;64374;51.482;7.408;2023-05-08T07:10:38;19.00;99.90
4356;DHT22;64374;51.482;7.408;2023-05-08T07:13:07;19.00;99.90
4356;DHT22;64374;51.482;7.408;2023-05-08T07:15:35;19.10;99.90
4356;DHT22;64374;51.482;7.408;2023-05-08T07:18:04;19.20;99.90
4356;DHT22;64374;51.482;7.408;2023-05-08T07:20:34;19.30;99.90
4356;DHT22;64374;51.482;7.408;2023-05-08T07:23:02;19.50;99.90
4356;DHT22;64374;51.482;7.408;2023-05-08T07:25:32;19.40;99.90
4356;DHT22;64374;51.482;7.408;2023-05-08T07:28:01;19.60;99.90
4356;DHT22;64374;51.482;7.408;2023-05-08T07:30:30;19.50;99.90
4356;DHT22;64374;51.482;7.408;2023-05-08T07:33:00;19.40;99.90
4356;DHT22;64374;51.482;7.408;2023-05-08T07:35:28;19.50;99.90
4356;DHT22;64374;51.482;7.408;2023-05-08T07:37:56;19.30;99.90
4356;DHT22;64374;51.482;7.408;2023-05-08T07:40:26;19.50;99.90
4356;DHT22;64374;51.482;7.408;2023-05-08T07:42:54;19.60;99.90
4356;DHT22;64374;51.482;7.408;2023-05-08T07:45:24;19.80;99.90
4356;DHT22;64374;51.482;7.408;2023-05-08T07:47:54;19.90;99.90
4356;DHT22;64374;51.482;7.408;2023-05-08T07:50:24;19.90;99.90
4356;DHT22;64374;51.482;7.408;2023-05-08T07:52:52;19.90;99.90
4356;DHT22;64374;51.482;7.408;2023-05-08T07:55:20;19.80;99.90
4356;DHT22;64374;51.482;7.408;2023-05-08T07:57:49;19.80;99.90
4356;DHT22;64374;51.482;7.408;2023-05-08T08:00:17;19.80;99.90
4356;DHT22;64374;51.482;7.408;2023-05-08T08:02:47;19.80;99.90
4356;DHT22;64374;51.482;7.408;2023-05-08T08:05:16;19.40;99.90
4356;DHT22;64374;51.482;7.408;2023-05-08T08:07:44;19.20;99.90
4356;DHT22;64374;51.482;7.408;2023-05-08T08:10:12;19.50;99.90
4356;DHT22;64374;51.482;7.408;2023-05-08T08:12:41;19.70;99.90
4356;DHT22;64374;51.482;7.408;2023-05-08T08:15:10;19.80;99.90
4356;DHT22;64374;51.482;7.408;2023-05-08T08:17:38;19.90;99.90
4356;DHT22;64374;51.482;7.408;2023-05-08T08:20:09;19.60;99.90
4356;DHT22;64374;51.482;7.408;2023-05-08T08:22:38;19.30;99.90
4356;DHT22;64374;51.482;7.408;2023-05-08T08:25:07;19.50;99.90
4356;DHT22;64374;51.482;7.408;2023-05-08T08:27:36;19.30;99.90
4356;DHT22;64374;51.482;7.408;2023-05-08T08:30:06;19.50;99.90
4356;DHT22;64374;51.482;7.408;2023-05-08T08:32:44;19.70;99.90
4356;DHT22;64374;51.482;7.408;2023-05-08T08:35:14;19.90;99.90
4356;DHT22;64374;51.482;7.408;2023-05-08T08:37:43;19.70;99.90
4356;DHT22;64374;51.482;7.408;2023-05-08T08:40:11;19.70;99.90
4356;DHT22;64374;51.482;7.408;2023-05-08T08:42:44;19.60;99.90
4356;DHT22;64374;51.482;7.408;2023-05-08T08:45:13;19.40;99.90
4356;DHT22;64374;51.482;7.408;2023-05-08T08:47:44;19.40;99.90
4356;DHT22;64374;51.482;7.408;2023-05-08T08:50:19;19.40;99.90
4356;DHT22;64374;51.482;7.408;2023-05-08T08:52:54;19.20;99.90
4356;DHT22;64374;51.482;7.408;2023-05-08T08:55:24;18.90;99.90
4356;DHT22;64374;51.482;7.408;2023-05-08T08:58:20;18.80;99.90
4356;DHT22;64374;51.482;7.408;2023-05-08T09:00:49;18.70;99.90
4356;DHT22;64374;51.482;7.408;2023-05-08T09:03:20;18.90;99.90
4356;DHT22;64374;51.482;7.408;2023-05-08T09:05:50;19.00;99.90
4356;DHT22;64374;51.482;7.408;2023-05-08T09:08:18;18.80;99.90
4356;DHT22;64374;51.482;7.408;2023-05-08T09:10:47;18.70;99.90
4356;DHT22;64374;51.482;7.408;2023-05-08T09:13:18;18.70;99.90
4356;DHT22;64374;51.482;7.408;2023-05-08T09:15:46;18.50;99.90
4356;DHT22;64374;51.482;7.408;2023-05-08T09:18:15;18.60;99.90
4356;DHT22;64374;51.482;7.408;2023-05-08T09:20:45;19.00;99.90
4356;DHT22;64374;51.482;7.408;2023-05-08T09:23:15;19.10;99.90
4356;DHT22;64374;51.482;7.408;2023-05-08T09:25:46;18.90;99.90
4356;DHT22;64374;51.482;7.408;2023-05-08T09:28:16;18.90;99.90
4356;DHT22;64374;51.482;7.408;2023-05-08T09:30:51;18.50;99.90
4356;DHT22;64374;51.482;7.408;2023-05-08T09:33:19;19.00;99.90
4356;DHT22;64374;51.482;7.408;2023-05-08T09:35:48;19.10;99.90
4356;DHT22;64374;51.482;7.408;2023-05-08T09:38:34;19.00;99.90
4356;DHT22;64374;51.482;7.408;2023-05-08T09:41:09;19.20;99.90
4356;DHT22;64374;51.482;7.408;2023-05-08T09:43:41;19.50;99.90
4356;DHT22;64374;51.482;7.408;2023-05-08T09:46:21;19.60;99.90
4356;DHT22;64374;51.482;7.408;2023-05-08T09:48:52;18.80;99.90
4356;DHT22;64374;51.482;7.408;2023-05-08T09:51:22;19.00;99.90
4356;DHT22;64374;51.482;7.408;2023-05-08T09:53:53;19.00;99.90
4356;DHT22;64374;51.482;7.408;2023-05-08T09:56:33;19.20;99.90
4356;DHT22;64374;51.482;7.408;2023-05-08T09:59:03;18.90;99.90
4356;DHT22;64374;51.482;7.408;2023-05-08T10:01:34;18.70;99.90
4356;DHT22;64374;51.482;7.408;2023-05-08T10:04:03;18.90;99.90
4356;DHT22;64374;51.482;7.408;2023-05-08T10:06:32;18.70;99.90
4356;DHT22;64374;51.482;7.408;2023-05-08T10:09:08;18.90;99.90
4356;DHT22;64374;51.482;7.408;2023-05-08T10:11:39;19.10;99.90
4356;DHT22;64374;51.482;7.408;2023-05-08T10:14:08;19.10;99.90
4356;DHT22;64374;51.482;7.408;2023-05-08T10:16:41;19.10;99.90
4356;DHT22;64374;51.482;7.408;2023-05-08T10:19:14;18.80;99.90
4356;DHT22;64374;51.482;7.408;2023-05-08T10:21:45;18.90;99.90
4356;DHT22;64374;51.482;7.408;2023-05-08T10:24:17;18.80;99.90
4356;DHT22;64374;51.482;7.408;2023-05-08T10:26:55;18.90;99.90
4356;DHT22;64374;51.482;7.408;2023-05-08T10:29:51;18.90;99.90
4356;DHT22;64374;51.482;7.408;2023-05-08T10:32:22;18.50;99.90
4356;DHT22;64374;51.482;7.408;2023-05-08T10:34:52;18.70;99.90
4356;DHT22;64374;51.482;7.408;2023-05-08T10:37:23;18.90;99.90
4356;DHT22;64374;51.482;7.408;2023-05-08T10:39:54;19.00;99.90
4356;DHT22;64374;51.482;7.408;2023-05-08T10:42:25;18.80;99.90
4356;DHT22;64374;51.482;7.408;2023-05-08T10:44:55;18.70;99.90
4356;DHT22;64374;51.482;7.408;2023-05-08T10:47:36;18.90;99.90
4356;DHT22;64374;51.482;7.408;2023-05-08T10:50:23;18.70;99.90
4356;DHT22;64374;51.482;7.408;2023-05-08T10:53:00;18.90;99.90
4356;DHT22;64374;51.482;7.408;2023-05-08T10:55:32;18.60;99.90
4356;DHT22;64374;51.482;7.408;2023-05-08T10:58:05;19.00;99.90
4356;DHT22;64374;51.482;7.408;2023-05-08T11:01:11;19.30;99.90
4356;DHT22;64374;51.482;7.408;2023-05-08T11:03:47;19.10;99.90
4356;DHT22;64374;51.482;7.408;2023-05-08T11:06:44;19.20;99.90
4356;DHT22;64374;51.482;7.408;2023-05-08T11:09:17;19.60;99.90
4356;DHT22;64374;51.482;7.408;2023-05-08T11:12:06;19.80;99.90
4356;DHT22;64374;51.482;7.408;2023-05-08T11:14:37;20.00;99.90
4356;DHT22;64374;51.482;7.408;2023-05-08T11:17:08;20.00;99.90
4356;DHT22;64374;51.482;7.408;2023-05-08T11:19:37;20.10;99.90
4356;DHT22;64374;51.482;7.408;2023-05-08T11:22:27;20.20;99.90
4356;DHT22;64374;51.482;7.408;2023-05-08T11:25:02;20.10;99.90
4356;DHT22;64374;51.482;7.408;2023-05-08T11:27:35;20.20;99.90
4356;DHT22;64374;51.482;7.408;2023-05-08T11:30:21;19.80;99.90
4356;DHT22;64374;51.482;7.408;2023-05-08T11:33:12;20.10;99.90
4356;DHT22;64374;51.482;7.408;2023-05-08T11:36:12;19.60;99.90
4356;DHT22;64374;51.482;7.408;2023-05-08T11:38:42;18.60;99.90
4356;DHT22;64374;51.482;7.408;2023-05-08T11:41:19;18.90;99.90
4356;DHT22;64374;51.482;7.408;2023-05-08T11:44:04;18.40;99.90
4356;DHT22;64374;51.482;7.408;2023-05-08T11:46:43;18.80;99.90
4356;DHT22;64374;51.482;7.408;2023-05-08T11:49:16;19.40;99.90
4356;DHT22;64374;51.482;7.408;2023-05-08T11:51:53;19.60;99.90
4356;DHT22;64374;51.482;7.408;2023-05-08T11:54:29;19.90;99.90
4356;DHT22;64374;51.482;7.408;2023-05-08T11:56:58;20.20;99.90
4356;DHT22;64374;51.482;7.408;2023-05-08T11:59:34;20.60;99.90
4356;DHT22;64374;51.482;7.408;2023-05-08T12:02:04;20.90;99.90
4356;DHT22;64374;51.482;7.408;2023-05-08T12:04:44;21.00;99.90
4356;DHT22;64374;51.482;7.408;2023-05-08T12:07:13;21.20;99.90
4356;DHT22;64374;51.482;7.408;2023-05-08T12:09:42;21.30;99.90
4356;DHT22;64374;51.482;7.408;2023-05-08T12:12:10;21.40;99.90
4356;DHT22;64374;51.482;7.408;2023-05-08T12:14:40;21.40;99.90
4356;DHT22;64374;51.482;7.408;2023-05-08T12:17:09;21.30;99.90
4356;DHT22;64374;51.482;7.408;2023-05-08T12:19:37;21.50;99.90
4356;DHT22;64374;51.482;7.408;2023-05-08T12:22:07;21.60;99.90
4356;DHT22;64374;51.482;7.408;2023-05-08T12:24:38;21.50;99.90
4356;DHT22;64374;51.482;7.408;2023-05-08T12:27:08;21.60;99.90
4356;DHT22;64374;51.482;7.408;2023-05-08T12:29:43;21.50;99.90
4356;DHT22;64374;51.482;7.408;2023-05-08T12:32:12;21.20;99.90
4356;DHT22;64374;51.482;7.408;2023-05-08T12:34:41;21.50;99.90
4356;DHT22;64374;51.482;7.408;2023-05-08T12:37:10;21.70;99.90
4356;DHT22;64374;51.482;7.408;2023-05-08T12:39:43;21.60;99.90
4356;DHT22;64374;51.482;7.408;2023-05-08T12:42:12;21.70;99.90
4356;DHT22;64374;51.482;7.408;2023-05-08T12:44:50;21.90;99.90
4356;DHT22;64374;51.482;7.408;2023-05-08T12:47:19;21.90;99.90
4356;DHT22;64374;51.482;7.408;2023-05-08T12:49:48;21.80;99.90
4356;DHT22;64374;51.482;7.408;2023-05-08T12:52:16;21.70;99.90
4356;DHT22;64374;51.482;7.408;2023-05-08T12:54:47;21.50;99.90
4356;DHT22;64374;51.482;7.408;2023-05-08T12:57:17;21.70;99.90
4356;DHT22;64374;51.482;7.408;2023-05-08T12:59:48;21.60;99.90
4356;DHT22;64374;51.482;7.408;2023-05-08T13:02:19;21.70;99.90
4356;DHT22;64374;51.482;7.408;2023-05-08T13:04:52;21.60;99.90
4356;DHT22;64374;51.482;7.408;2023-05-08T13:07:22;21.10;99.90
4356;DHT22;64374;51.482;7.408;2023-05-08T13:09:57;21.30;99.90
4356;DHT22;64374;51.482;7.408;2023-05-08T13:12:30;21.40;99.90
4356;DHT22;64374;51.482;7.408;2023-05-08T13:14:58;21.30;99.90
4356;DHT22;64374;51.482;7.408;2023-05-08T13:17:29;21.40;99.90
4356;DHT22;64374;51.482;7.408;2023-05-08T13:19:59;21.60;99.90
4356;DHT22;64374;51.482;7.408;2023-05-08T13:22:32;21.60;99.90
4356;DHT22;64374;51.482;7.408;2023-05-08T13:25:00;20.60;99.90
4356;DHT22;64374;51.482;7.408;2023-05-08T13:27:30;20.70;99.90
4356;DHT22;64374;51.482;7.408;2023-05-08T13:29:58;20.90;99.90
4356;DHT22;64374;51.482;7.408;2023-05-08T13:32:28;21.20;99.90
4356;DHT22;64374;51.482;7.408;2023-05-08T13:34:58;21.50;99.90
4356;DHT22;64374;51.482;7.408;2023-05-08T13:37:39;21.70;99.90
4356;DHT22;64374;51.482;7.408;2023-05-08T13:40:09;21.90;99.90
4356;DHT22;64374;51.482;7.408;2023-05-08T13:42:38;22.10;99.90
4356;DHT22;64374;51.482;7.408;2023-05-08T13:45:08;22.30;99.90
4356;DHT22;64374;51.482;7.408;2023-05-08T13:47:39;22.40;99.90
4356;DHT22;64374;51.482;7.408;2023-05-08T13:50:09;22.50;99.90
4356;DHT22;64374;51.482;7.408;2023-05-08T13:52:39;22.60;99.90
4356;DHT22;64374;51.482;7.408;2023-05-08T13:55:09;22.50;99.90
4356;DHT22;64374;51.482;7.408;2023-05-08T13:57:39;22.60;99.90
4356;DHT22;64374;51.482;7.408;2023-05-08T14:00:11;22.40;99.90
4356;DHT22;64374;51.482;7.408;2023-05-08T14:02:43;22.10;99.90
4356;DHT22;64374;51.482;7.408;2023-05-08T14:05:12;22.20;99.90
4356;DHT22;64374;51.482;7.408;2023-05-08T14:07:42;22.30;99.90
4356;DHT22;64374;51.482;7.408;2023-05-08T14:10:14;22.30;99.90
4356;DHT22;64374;51.482;7.408;2023-05-08T14:12:43;22.30;99.90
4356;DHT22;64374;51.482;7.408;2023-05-08T14:15:14;22.30;99.90
4356;DHT22;64374;51.482;7.408;2023-05-08T14:17:45;22.30;99.90
4356;DHT22;64374;51.482;7.408;2023-05-08T14:20:15;22.30;99.90
4356;DHT22;64374;51.482;7.408;2023-05-08T14:22:43;22.30;99.90
4356;DHT22;64374;51.482;7.408;2023-05-08T14:25:14;22.40;99.90
4356;DHT22;64374;51.482;7.408;2023-05-08T14:27:42;22.50;99.90
4356;DHT22;64374;51.482;7.408;2023-05-08T14:30:11;22.50;99.90
4356;DHT22;64374;51.482;7.408;2023-05-08T14:32:42;22.50;99.90
4356;DHT22;64374;51.482;7.408;2023-05-08T14:35:12;22.50;99.90
4356;DHT22;64374;51.482;7.408;2023-05-08T14:37:44;22.40;99.90
4356;DHT22;64374;51.482;7.408;2023-05-08T14:40:13;22.40;99.90
4356;DHT22;64374;51.482;7.408;2023-05-08T14:42:42;22.30;99.90
4356;DHT22;64374;51.482;7.408;2023-05-08T14:45:11;22.40;99.90
4356;DHT22;64374;51.482;7.408;2023-05-08T14:47:40;22.40;99.90
4356;DHT22;64374;51.482;7.408;2023-05-08T14:50:08;22.50;99.90
4356;DHT22;64374;51.482;7.408;2023-05-08T14:52:38;22.50;99.90
4356;DHT22;64374;51.482;7.408;2023-05-08T14:55:09;22.00;99.90
4356;DHT22;64374;51.482;7.408;2023-05-08T14:57:47;22.20;99.90
4356;DHT22;64374;51.482;7.408;2023-05-08T15:00:16;22.30;99.90
4356;DHT22;64374;51.482;7.408;2023-05-08T15:02:45;22.50;99.90
4356;DHT22;64374;51.482;7.408;2023-05-08T15:05:14;22.60;99.90
4356;DHT22;64374;51.482;7.408;2023-05-08T15:07:48;22.70;99.90
4356;DHT22;64374;51.482;7.408;2023-05-08T15:10:17;22.80;99.90
4356;DHT22;64374;51.482;7.408;2023-05-08T15:12:45;22.60;99.90
4356;DHT22;64374;51.482;7.408;2023-05-08T15:15:14;22.60;99.90
4356;DHT22;64374;51.482;7.408;2023-05-08T15:17:43;22.40;99.90
4356;DHT22;64374;51.482;7.408;2023-05-08T15:20:12;22.40;99.90
4356;DHT22;64374;51.482;7.408;2023-05-08T15:22:40;22.50;99.90
4356;DHT22;64374;51.482;7.408;2023-05-08T15:25:10;22.50;99.90
4356;DHT22;64374;51.482;7.408;2023-05-08T15:27:43;22.50;99.90
4356;DHT22;64374;51.482;7.408;2023-05-08T15:30:13;22.30;99.90
4356;DHT22;64374;51.482;7.408;2023-05-08T15:32:41;22.50;99.90
4356;DHT22;64374;51.482;7.408;2023-05-08T15:35:09;22.60;99.90
4356;DHT22;64374;51.482;7.408;2023-05-08T15:37:38;22.70;99.90
4356;DHT22;64374;51.482;7.408;2023-05-08T15:40:08;22.90;99.90
4356;DHT22;64374;51.482;7.408;2023-05-08T15:42:37;22.90;99.90
4356;DHT22;64374;51.482;7.408;2023-05-08T15:45:06;22.80;99.90
4356;DHT22;64374;51.482;7.408;2023-05-08T15:47:35;22.70;99.90
4356;DHT22;64374;51.482;7.408;2023-05-08T15:50:06;22.70;99.90
4356;DHT22;64374;51.482;7.408;2023-05-08T15:52:34;22.60;99.90
4356;DHT22;64374;51.482;7.408;2023-05-08T15:55:03;22.60;99.90
4356;DHT22;64374;51.482;7.408;2023-05-08T15:57:31;22.70;99.90
4356;DHT22;64374;51.482;7.408;2023-05-08T16:00:02;22.70;99.90
4356;DHT22;64374;51.482;7.408;2023-05-08T16:02:30;22.50;99.90
4356;DHT22;64374;51.482;7.408;2023-05-08T16:05:01;22.50;99.90
4356;DHT22;64374;51.482;7.408;2023-05-08T16:07:30;22.70;99.90
4356;DHT22;64374;51.482;7.408;2023-05-08T16:09:59;22.80;99.90
4356;DHT22;64374;51.482;7.408;2023-05-08T16:12:27;22.90;99.90
4356;DHT22;64374;51.482;7.408;2023-05-08T16:14:57;23.00;99.90